Time;durP1;ratioP1;P1;durP2;ratioP2;P2;SDS_P1;SDS_P2;PMS_P1;PMS_P2;Temp;Humidity;BMP_temperature;BMP_pressure;BME280_temperature;BME280_humidity;BME280_pressure;Samples;Min_cycle;Max_cycle;Signal;HPM_P1;HPM_P2
2022/10/22 00:01:19;;;;;;;1.60;1.50;;;;;;;14.30;75.10;100443.22;5083746;29;20544;-81
2022/10/22 00:03:49;;;;;;;0.47;0.47;;;;;;;14.27;75.43;100436.31;5101556;29;20051;-81
2022/10/22 00:06:20;;;;;;;3.75;1.52;;;;;;;14.31;74.87;100431.75;5115708;28;20059;-81
2022/10/22 00:08:51;;;;;;;0.63;0.63;;;;;;;14.31;74.79;100442.28;5117610;28;20087;-80
2022/10/22 00:11:26;;;;;;;0.43;0.43;;;;;;;14.23;75.53;100444.44;5097406;29;20032;-81
2022/10/22 00:13:56;;;;;;;0.77;0.77;;;;;;;14.23;75.42;100447.91;5115345;28;20143;-81
2022/10/22 00:16:27;;;;;;;0.60;0.60;;;;;;;14.22;75.43;100442.72;5117487;28;20669;-81
2022/10/22 00:18:58;;;;;;;0.65;0.65;;;;;;;14.16;75.83;100435.94;5113799;28;20377;-80
2022/10/22 00:21:29;;;;;;;0.68;0.68;;;;;;;14.17;75.65;100438.50;5098321;29;20258;-80
2022/10/22 00:24:00;;;;;;;0.57;0.50;;;;;;;14.17;75.84;100435.03;5070340;29;20039;-80
2022/10/22 00:26:32;;;;;;;0.50;0.50;;;;;;;14.20;75.49;100434.03;5098049;29;20035;-81
2022/10/22 00:29:03;;;;;;;0.80;0.80;;;;;;;14.23;75.07;100437.38;5099089;29;20146;-81
2022/10/22 00:31:34;;;;;;;1.25;1.15;;;;;;;14.25;75.01;100450.50;5104380;28;20099;-81
2022/10/22 00:34:05;;;;;;;0.75;0.75;;;;;;;14.25;75.22;100450.50;5082855;29;20042;-81
2022/10/22 00:36:35;;;;;;;0.85;0.85;;;;;;;14.24;75.08;100449.63;5119446;28;20039;-82
2022/10/22 00:39:06;;;;;;;1.90;1.42;;;;;;;14.17;75.59;100446.41;5101564;29;20099;-80
2022/10/22 00:41:42;;;;;;;0.57;0.57;;;;;;;14.19;75.39;100438.44;5097766;29;20044;-81
2022/10/22 00:44:50;;;;;;;0.40;0.40;;;;;;;14.15;75.63;100434.22;5115567;29;20039;-80
2022/10/22 00:47:24;;;;;;;1.60;1.38;;;;;;;14.14;75.79;100433.38;5100711;29;20504;-81
2022/10/22 00:49:56;;;;;;;2.15;1.60;;;;;;;14.15;75.50;100445.66;5100994;29;20592;-81
2022/10/22 00:52:28;;;;;;;1.13;1.10;;;;;;;14.14;75.61;100441.31;5084651;29;20039;-81
2022/10/22 00:55:00;;;;;;;0.82;0.70;;;;;;;14.15;75.58;100436.88;5097783;29;20099;-81
2022/10/22 00:57:31;;;;;;;3.03;1.55;;;;;;;14.17;75.30;100442.94;5117877;28;20047;-82
2022/10/22 01:00:06;;;;;;;1.33;1.20;;;;;;;14.10;76.07;100439.72;5102681;29;20130;-81
2022/10/22 01:02:37;;;;;;;1.10;0.63;;;;;;;14.14;75.56;100437.78;5098852;29;20133;-79
2022/10/22 01:05:08;;;;;;;1.90;1.10;;;;;;;14.09;76.04;100440.66;5097970;29;20064;-83
2022/10/22 01:07:47;;;;;;;0.50;0.50;;;;;;;14.11;75.66;100436.16;5111801;29;20036;-80
2022/10/22 01:10:43;;;;;;;1.55;1.48;;;;;;;14.12;75.51;100434.41;5129174;28;20024;-80
2022/10/22 01:13:34;;;;;;;0.30;0.30;;;;;;;14.06;75.91;100424.09;5118935;29;20118;-81
2022/10/22 01:16:11;;;;;;;0.73;0.70;;;;;;;14.09;75.79;100435.38;5115347;28;20035;-81
2022/10/22 01:18:50;;;;;;;0.50;0.50;;;;;;;14.13;75.50;100429.03;5100309;29;20797;-80
2022/10/22 01:21:42;;;;;;;1.75;1.55;;;;;;;14.10;75.39;100434.44;5101101;28;20571;-80
2022/10/22 01:24:31;;;;;;;0.45;0.45;;;;;;;14.09;75.50;100419.53;5095550;28;20111;-80
2022/10/22 01:27:14;;;;;;;0.52;0.52;;;;;;;14.04;75.87;100420.69;5100007;29;20099;-80
2022/10/22 01:30:13;;;;;;;0.60;0.60;;;;;;;14.05;75.56;100425.91;5098261;29;20050;-82
2022/10/22 01:32:49;;;;;;;0.52;0.52;;;;;;;14.03;75.44;100417.19;5087377;29;20024;-81
2022/10/22 01:35:26;;;;;;;17.27;1.00;;;;;;;14.00;75.61;100420.00;5099454;29;20608;-80
2022/10/22 01:38:02;;;;;;;0.30;0.30;;;;;;;14.04;75.26;100411.00;5101867;29;20496;-80
2022/10/22 01:40:35;;;;;;;6.82;1.10;;;;;;;13.96;75.76;100414.00;5087105;29;20526;-81
2022/10/22 01:43:11;;;;;;;1.85;1.50;;;;;;;13.96;75.60;100418.41;5109732;29;20044;-81
2022/10/22 01:45:46;;;;;;;0.55;0.55;;;;;;;13.97;75.60;100417.47;5125366;28;20447;-80
2022/10/22 01:48:29;;;;;;;1.38;0.88;;;;;;;13.98;76.04;100427.13;5123368;28;20035;-81
2022/10/22 01:51:23;;;;;;;0.50;0.50;;;;;;;13.95;75.38;100419.31;5100089;29;20090;-81
2022/10/22 01:53:59;;;;;;;;;;;;;;;13.94;75.41;100420.25;5104481;29;20036;-81
2022/10/22 01:56:39;;;;;;;0.90;0.90;;;;;;;13.92;75.65;100411.56;5117605;28;20001;-80
2022/10/22 01:59:23;;;;;;;0.40;0.40;;;;;;;13.93;75.27;100418.53;5103642;28;20055;-81
2022/10/22 02:01:56;;;;;;;0.50;0.50;;;;;;;13.90;75.44;100416.91;5105977;29;20737;-81
2022/10/22 02:04:43;;;;;;;0.52;0.52;;;;;;;13.89;75.66;100412.53;5118090;28;20035;-80
2022/10/22 02:07:19;;;;;;;0.93;0.93;;;;;;;13.94;75.36;100414.97;5104508;29;20036;-81
2022/10/22 02:09:52;;;;;;;0.57;0.57;;;;;;;13.89;75.36;100422.25;5103655;29;20040;-81
2022/10/22 02:12:26;;;;;;;1.17;0.75;;;;;;;13.85;75.59;100424.19;5117241;29;20050;-82
2022/10/22 02:15:00;;;;;;;0.60;0.60;;;;;;;13.80;75.86;100419.13;5086336;29;20038;-80
2022/10/22 02:17:35;;;;;;;1.05;0.80;;;;;;;13.80;75.46;100436.72;5102345;29;20042;-81
2022/10/22 02:20:14;;;;;;;2.30;1.50;;;;;;;13.79;75.76;100430.59;5103802;29;20090;-80
2022/10/22 02:22:49;;;;;;;0.43;0.43;;;;;;;13.82;75.73;100427.81;5117495;28;20024;-81
2022/10/22 02:25:23;;;;;;;0.75;0.75;;;;;;;13.76;75.63;100427.22;5070994;29;20038;-80
2022/10/22 02:28:10;;;;;;;0.80;0.80;;;;;;;13.75;75.55;100434.28;5122952;28;20016;-80
2022/10/22 02:30:45;;;;;;;1.10;1.10;;;;;;;13.79;75.17;100437.66;5105146;28;20126;-81
2022/10/22 02:33:21;;;;;;;0.80;0.80;;;;;;;13.72;75.85;100438.84;5105335;29;20765;-80
2022/10/22 02:36:02;;;;;;;0.30;0.30;;;;;;;13.69;76.04;100443.34;5118480;28;20036;-80
2022/10/22 02:38:35;;;;;;;0.40;0.40;;;;;;;13.67;75.85;100434.63;5086548;29;20091;-81
2022/10/22 02:41:05;;;;;;;1.02;0.77;;;;;;;13.66;75.63;100437.34;5082027;29;20039;-80
2022/10/22 02:43:48;;;;;;;0.45;0.45;;;;;;;13.64;75.69;100439.19;5099680;29;20115;-81
2022/10/22 02:46:21;;;;;;;0.30;0.30;;;;;;;13.63;76.07;100434.81;5116911;28;20027;-81
2022/10/22 02:48:51;;;;;;;0.67;0.67;;;;;;;13.60;75.91;100434.94;5086902;29;20031;-80
2022/10/22 02:51:22;;;;;;;4.10;1.85;;;;;;;13.59;75.89;100446.44;5106034;29;20040;-80
2022/10/22 02:53:52;;;;;;;0.60;0.60;;;;;;;13.59;75.85;100435.91;5125751;29;20071;-80
2022/10/22 02:56:23;;;;;;;6.05;1.85;;;;;;;13.60;75.62;100433.19;5113233;28;20071;-80
2022/10/22 02:58:53;;;;;;;1.20;1.10;;;;;;;13.51;76.02;100430.97;5112180;28;20130;-81
2022/10/22 03:01:24;;;;;;;0.22;0.22;;;;;;;13.49;75.86;100428.41;5086269;29;20039;-80
2022/10/22 03:03:56;;;;;;;0.40;0.40;;;;;;;13.47;76.22;100438.16;5087092;29;20091;-81
2022/10/22 03:06:30;;;;;;;1.00;0.90;;;;;;;13.46;76.28;100441.69;5097760;29;20095;-80
2022/10/22 03:09:01;;;;;;;0.65;0.65;;;;;;;13.47;76.25;100440.78;5116475;28;20042;-80
2022/10/22 03:11:34;;;;;;;0.52;0.52;;;;;;;13.51;76.17;100438.88;5083756;29;20485;-81
2022/10/22 03:14:10;;;;;;;0.40;0.40;;;;;;;13.47;76.50;100443.41;5081409;29;20122;-81
2022/10/22 03:16:40;;;;;;;1.27;1.17;;;;;;;13.44;76.21;100445.34;5102792;29;20039;-81
2022/10/22 03:19:11;;;;;;;0.38;0.38;;;;;;;13.47;75.93;100443.41;5101784;29;20561;-81
2022/10/22 03:21:51;;;;;;;0.30;0.30;;;;;;;13.45;76.09;100445.25;5116555;28;20039;-81
2022/10/22 03:24:32;;;;;;;0.25;0.25;;;;;;;13.46;75.99;100448.75;5116859;28;20038;-81
2022/10/22 03:27:04;;;;;;;1.65;1.27;;;;;;;13.44;76.22;100446.19;5099304;29;20031;-81
2022/10/22 03:29:37;;;;;;;0.47;0.47;;;;;;;13.45;76.09;100439.16;5086443;28;20187;-80
2022/10/22 03:32:11;;;;;;;0.20;0.20;;;;;;;13.43;76.14;100441.81;5103194;29;20122;-80
2022/10/22 03:34:42;;;;;;;0.30;0.30;;;;;;;13.42;76.30;100455.94;5087036;29;20047;-81
2022/10/22 03:37:13;;;;;;;2.58;1.60;;;;;;;13.37;76.27;100464.03;5118675;29;20040;-80
2022/10/22 03:39:44;;;;;;;0.63;0.63;;;;;;;13.41;76.25;100456.88;5097583;28;20051;-81
2022/10/22 03:42:15;;;;;;;8.88;1.95;;;;;;;13.40;76.19;100462.19;5100413;29;20035;-80
2022/10/22 03:44:46;;;;;;;0.30;0.30;;;;;;;13.38;76.45;100464.84;5099868;29;20035;-80
2022/10/22 03:47:17;;;;;;;0.30;0.30;;;;;;;13.35;76.38;100457.94;5120118;29;20027;-81
2022/10/22 03:49:47;;;;;;;0.40;0.40;;;;;;;13.36;76.42;100459.66;5100337;28;20050;-81
2022/10/22 03:52:19;;;;;;;0.40;0.40;;;;;;;13.34;76.63;100464.13;5104164;29;20036;-80
2022/10/22 03:54:49;;;;;;;0.60;0.60;;;;;;;13.34;76.50;100458.03;5083771;29;20042;-80
2022/10/22 03:57:24;;;;;;;0.73;0.73;;;;;;;13.33;76.75;100458.94;5103496;29;20039;-80
2022/10/22 03:59:54;;;;;;;0.47;0.47;;;;;;;13.29;77.11;100459.97;5095313;29;20036;-81
2022/10/22 04:02:25;;;;;;;0.50;0.50;;;;;;;13.33;77.11;100466.84;5116292;28;20739;-80
2022/10/22 04:04:55;;;;;;;0.98;0.98;;;;;;;13.33;76.88;100472.13;5114451;29;20043;-80
2022/10/22 04:07:26;;;;;;;1.35;1.25;;;;;;;13.29;77.23;100475.78;5104612;29;20035;-80
2022/10/22 04:09:59;;;;;;;2.47;0.93;;;;;;;13.31;76.89;100479.22;5081899;29;20047;-81
2022/10/22 04:12:30;;;;;;;0.38;0.38;;;;;;;13.31;76.85;100484.50;5113936;29;20043;-81
2022/10/22 04:15:01;;;;;;;1.52;1.42;;;;;;;13.29;77.25;100483.69;5099880;29;20035;-80
2022/10/22 04:17:33;;;;;;;0.65;0.65;;;;;;;13.29;76.83;100487.19;5119798;28;20099;-81
2022/10/22 04:20:04;;;;;;;2.00;0.47;;;;;;;13.28;76.91;100484.63;5104211;29;20556;-81
2022/10/22 04:22:39;;;;;;;0.45;0.45;;;;;;;13.25;77.37;100496.13;5118393;29;20063;-80
2022/10/22 04:25:09;;;;;;;0.50;0.50;;;;;;;13.31;76.97;100489.75;5105333;29;20048;-80
2022/10/22 04:27:40;;;;;;;3.30;1.38;;;;;;;13.34;76.93;100501.03;5107240;29;20126;-81
2022/10/22 04:30:14;;;;;;;0.43;0.43;;;;;;;13.33;76.88;100506.38;5123938;28;20071;-81
2022/10/22 04:32:47;;;;;;;0.60;0.60;;;;;;;13.35;76.90;100502.75;5103222;29;20151;-80
2022/10/22 04:35:17;;;;;;;;;;;;;;;13.36;77.05;100514.13;5099900;29;20051;-81
2022/10/22 04:37:54;;;;;;;0.55;0.55;;;;;;;13.36;77.02;100508.84;5103463;28;19921;-81
2022/10/22 04:40:24;;;;;;;0.43;0.43;;;;;;;13.36;78.41;100508.84;5097731;29;20047;-80
2022/10/22 04:42:55;;;;;;;0.30;0.30;;;;;;;13.37;77.75;100506.19;5098299;29;20028;-80
2022/10/22 04:45:26;;;;;;;0.52;0.52;;;;;;;13.38;77.85;100514.94;5118350;29;20047;-80
2022/10/22 04:47:57;;;;;;;0.30;0.30;;;;;;;13.41;78.68;100512.22;5082337;29;20039;-81
2022/10/22 04:50:28;;;;;;;0.60;0.60;;;;;;;13.47;80.30;100521.63;5099963;29;20036;-80
2022/10/22 04:52:58;;;;;;;0.40;0.40;;;;;;;13.44;79.33;100513.84;5085270;29;20036;-80
2022/10/22 04:55:29;;;;;;;0.77;0.77;;;;;;;13.47;78.39;100511.09;5103515;29;20417;-80
2022/10/22 04:58:00;;;;;;;0.40;0.40;;;;;;;13.49;79.26;100519.78;5114435;28;20477;-79
2022/10/22 05:00:33;;;;;;;0.60;0.60;;;;;;;13.48;79.35;100516.28;5084343;29;20035;-80
2022/10/22 05:03:04;;;;;;;;;;;;;;;13.65;80.66;100520.00;5099709;29;20036;-80
2022/10/22 05:05:41;;;;;;;0.50;0.50;;;;;;;13.58;81.17;100523.81;5108626;29;19914;-80
2022/10/22 05:08:11;;;;;;;1.58;1.48;;;;;;;13.62;79.63;100520.09;5113032;29;20515;-81
2022/10/22 05:10:42;;;;;;;2.08;0.77;;;;;;;13.61;80.10;100524.53;5115326;28;20063;-81
2022/10/22 05:13:15;;;;;;;4.05;1.50;;;;;;;13.60;80.43;100521.94;5102287;29;20462;-79
2022/10/22 05:15:46;;;;;;;0.50;0.50;;;;;;;13.57;80.29;100524.72;5102179;28;20134;-80
2022/10/22 05:18:20;;;;;;;0.25;0.25;;;;;;;13.59;79.81;100525.53;5102578;29;20178;-80
2022/10/22 05:20:50;;;;;;;0.43;0.43;;;;;;;13.66;79.63;100530.47;5118105;28;20042;-80
2022/10/22 05:23:27;;;;;;;0.88;0.88;;;;;;;13.60;79.66;100527.22;5106414;29;20054;-81
2022/10/22 05:26:01;;;;;;;1.33;1.05;;;;;;;13.64;79.38;100528.81;5103843;29;20043;-80
2022/10/22 05:28:32;;;;;;;0.52;0.52;;;;;;;13.70;79.55;100536.44;5120598;28;20055;-79
2022/10/22 05:31:17;;;;;;;0.50;0.50;;;;;;;13.66;79.65;100541.00;5116174;28;20544;-80
2022/10/22 05:33:55;;;;;;;0.60;0.60;;;;;;;13.69;79.09;100537.38;5119336;28;20062;-80
2022/10/22 05:36:26;;;;;;;0.73;0.73;;;;;;;13.67;79.43;100537.44;5121030;28;20063;-80
2022/10/22 05:38:56;;;;;;;0.57;0.45;;;;;;;13.71;79.37;100539.97;5102224;29;20039;-81
2022/10/22 05:41:28;;;;;;;0.30;0.30;;;;;;;13.69;80.08;100545.28;5101216;29;20075;-80
2022/10/22 05:43:59;;;;;;;0.40;0.40;;;;;;;13.69;80.44;100542.66;5105009;29;20138;-80
2022/10/22 05:46:34;;;;;;;0.63;0.63;;;;;;;13.69;79.87;100547.91;5102395;28;20130;-81
2022/10/22 05:49:09;;;;;;;0.50;0.50;;;;;;;13.69;79.95;100548.78;5118017;28;20580;-81
2022/10/22 05:51:42;;;;;;;0.60;0.60;;;;;;;13.72;80.53;100554.88;5119609;28;20040;-83
2022/10/22 05:54:19;;;;;;;0.55;0.55;;;;;;;13.72;79.92;100554.88;5087634;28;20035;-83
2022/10/22 05:56:57;;;;;;;0.85;0.85;;;;;;;13.73;79.71;100561.81;5104658;29;20106;-84
2022/10/22 05:59:28;;;;;;;0.85;0.85;;;;;;;13.69;81.32;100566.38;5104735;28;20049;-83
2022/10/22 06:01:59;;;;;;;0.57;0.57;;;;;;;13.65;80.60;100570.06;5086553;29;20078;-81
2022/10/22 06:04:30;;;;;;;1.10;1.05;;;;;;;13.70;80.07;100576.00;5106075;28;20554;-84
2022/10/22 06:07:01;;;;;;;2.97;1.27;;;;;;;13.67;80.43;100576.16;5119505;28;20647;-83
2022/10/22 06:09:35;;;;;;;0.65;0.65;;;;;;;13.67;80.36;100578.78;5115461;28;20606;-84
2022/10/22 06:12:12;;;;;;;0.73;0.68;;;;;;;13.72;79.87;100579.44;5091023;29;20043;-82
2022/10/22 06:14:43;;;;;;;1.95;0.55;;;;;;;13.71;80.04;100584.78;5083755;28;20039;-82
2022/10/22 06:17:13;;;;;;;0.38;0.38;;;;;;;13.67;79.85;100590.19;5118578;28;20039;-82
2022/10/22 06:19:45;;;;;;;1.38;0.65;;;;;;;13.68;79.70;100589.25;5068364;29;20066;-81
2022/10/22 06:22:15;;;;;;;1.10;1.08;;;;;;;13.66;80.20;100584.97;5103657;29;20032;-79
2022/10/22 06:24:46;;;;;;;1.25;1.15;;;;;;;13.70;80.11;100586.53;5099433;29;20043;-80
2022/10/22 06:27:16;;;;;;;0.82;0.82;;;;;;;13.73;79.85;100596.97;5095080;29;20036;-80
2022/10/22 06:29:47;;;;;;;0.77;0.77;;;;;;;13.77;80.08;100595.06;5116696;28;20440;-80
2022/10/22 06:32:17;;;;;;;1.45;1.38;;;;;;;13.74;79.68;100603.97;5118554;28;20055;-80
2022/10/22 06:34:49;;;;;;;0.52;0.52;;;;;;;13.82;79.46;100603.63;5098068;29;20043;-80
2022/10/22 06:37:20;;;;;;;0.77;0.70;;;;;;;13.75;80.04;100616.22;5115188;28;20122;-81
2022/10/22 06:39:51;;;;;;;2.13;0.90;;;;;;;13.83;80.78;100613.25;5058427;29;20134;-79
2022/10/22 06:42:21;;;;;;;0.40;0.40;;;;;;;13.76;80.57;100620.56;5067997;29;20023;-82
2022/10/22 06:44:52;;;;;;;0.30;0.30;;;;;;;13.75;80.68;100621.50;5099427;29;20044;-82
2022/10/22 06:47:25;;;;;;;2.38;1.35;;;;;;;13.77;80.22;100631.97;5098718;29;20047;-85
2022/10/22 06:49:56;;;;;;;0.35;0.35;;;;;;;13.72;80.34;100633.97;5082996;29;20035;-82
2022/10/22 06:52:29;;;;;;;0.40;0.40;;;;;;;13.76;80.15;100628.47;5115129;29;20042;-81
2022/10/22 06:55:07;;;;;;;1.35;0.65;;;;;;;13.75;80.60;100632.06;5089728;29;20059;-82
2022/10/22 06:57:38;;;;;;;0.30;0.30;;;;;;;13.77;81.35;100639.88;5101857;29;20039;-81
2022/10/22 07:00:10;;;;;;;1.38;1.27;;;;;;;13.79;81.05;100643.31;5115281;28;20047;-82
2022/10/22 07:02:41;;;;;;;2.10;1.33;;;;;;;13.85;80.64;100656.25;5096886;29;20173;-82
2022/10/22 07:05:11;;;;;;;0.40;0.40;;;;;;;13.85;80.72;100656.25;5102770;29;20126;-81
2022/10/22 07:07:42;;;;;;;0.73;0.73;;;;;;;13.80;80.87;100650.31;5084407;29;20395;-81
2022/10/22 07:10:15;;;;;;;0.30;0.30;;;;;;;13.81;81.49;100655.53;5088730;28;20898;-84
2022/10/22 07:12:55;;;;;;;0.45;0.45;;;;;;;13.84;80.80;100663.28;5081629;28;20499;-84
2022/10/22 07:15:29;;;;;;;1.75;0.88;;;;;;;13.82;81.10;100665.16;5093048;29;20047;-82
2022/10/22 07:18:02;;;;;;;0.60;0.52;;;;;;;13.91;80.96;100663.06;5084183;29;20030;-82
2022/10/22 07:20:32;;;;;;;2.72;1.90;;;;;;;13.83;81.65;100661.59;5116825;28;20052;-82
2022/10/22 07:23:06;;;;;;;1.65;1.55;;;;;;;13.88;80.73;100664.03;5117217;28;20039;-82
2022/10/22 07:25:43;;;;;;;0.50;0.50;;;;;;;13.84;81.04;100680.91;5083334;29;20047;-82
2022/10/22 07:28:13;;;;;;;0.32;0.32;;;;;;;13.90;80.81;100682.44;5105247;29;20052;-82
2022/10/22 07:30:44;;;;;;;0.55;0.55;;;;;;;13.94;80.97;100686.66;5084356;29;20035;-81
2022/10/22 07:33:14;;;;;;;0.63;0.63;;;;;;;13.92;80.64;100685.88;5087865;29;20220;-81
2022/10/22 07:35:45;;;;;;;0.20;0.20;;;;;;;13.87;81.46;100693.09;5067945;29;20048;-80
2022/10/22 07:38:16;;;;;;;0.47;0.47;;;;;;;13.88;81.53;100697.47;5119583;28;20179;-81
2022/10/22 07:40:46;;;;;;;1.92;1.83;;;;;;;13.93;81.44;100699.00;5117327;28;20043;-80
2022/10/22 07:43:20;;;;;;;0.35;0.35;;;;;;;13.98;81.28;100702.28;5100032;29;20047;-80
2022/10/22 07:45:51;;;;;;;1.15;1.05;;;;;;;13.97;81.33;100710.28;5129747;28;20031;-80
2022/10/22 07:48:22;;;;;;;0.30;0.30;;;;;;;13.96;80.68;100706.78;5124371;28;20042;-80
2022/10/22 07:50:53;;;;;;;0.68;0.68;;;;;;;13.96;81.45;100713.81;5114873;28;20046;-79
2022/10/22 07:53:23;;;;;;;0.40;0.40;;;;;;;13.99;81.28;100724.25;5066865;29;20032;-79
2022/10/22 07:55:54;;;;;;;1.08;0.60;;;;;;;14.09;81.57;100724.72;5113324;28;20182;-80
2022/10/22 07:58:25;;;;;;;1.52;0.95;;;;;;;14.06;81.68;100731.00;5085229;29;20095;-80
2022/10/22 08:01:00;;;;;;;0.43;0.43;;;;;;;14.03;81.60;100738.19;5081825;29;20955;-79
2022/10/22 08:03:31;;;;;;;0.30;0.30;;;;;;;14.15;81.16;100741.16;5099443;29;20034;-80
2022/10/22 08:06:02;;;;;;;0.40;0.40;;;;;;;14.10;81.94;100743.13;5081987;29;20043;-80
2022/10/22 08:08:33;;;;;;;0.80;0.80;;;;;;;14.13;81.74;100742.16;5104483;28;20050;-80
2022/10/22 08:11:04;;;;;;;0.30;0.30;;;;;;;14.16;81.68;100752.56;5114740;28;20043;-81
2022/10/22 08:13:38;;;;;;;0.52;0.52;;;;;;;14.19;81.61;100751.56;5107155;29;20544;-80
2022/10/22 08:16:08;;;;;;;1.00;1.00;;;;;;;14.34;81.13;100753.56;5105448;29;20058;-79
2022/10/22 08:18:39;;;;;;;0.50;0.50;;;;;;;14.34;81.18;100756.19;5111878;29;20749;-80
2022/10/22 08:21:11;;;;;;;0.30;0.30;;;;;;;14.35;81.29;100757.94;5104384;29;20040;-80
2022/10/22 08:23:42;;;;;;;0.65;0.40;;;;;;;14.27;81.73;100760.03;5091234;29;20038;-84
2022/10/22 08:26:13;;;;;;;0.40;0.40;;;;;;;14.28;82.27;100769.66;5105037;29;20050;-84
2022/10/22 08:28:47;;;;;;;2.28;1.20;;;;;;;14.38;81.32;100771.00;5124804;28;20680;-83
2022/10/22 08:31:23;;;;;;;9.73;2.00;;;;;;;14.43;81.33;100766.38;5102176;29;20062;-83
2022/10/22 08:34:02;;;;;;;0.70;0.70;;;;;;;14.41;81.70;100765.59;5105215;29;20121;-83
2022/10/22 08:36:35;;;;;;;2.15;1.25;;;;;;;14.52;80.72;100765.16;5088688;29;20051;-83
2022/10/22 08:39:06;;;;;;;0.88;0.77;;;;;;;14.54;80.95;100765.06;5102801;29;20066;-82
2022/10/22 08:42:05;;;;;;;0.60;0.60;;;;;;;14.59;80.75;100771.88;5105796;28;20039;-81
2022/10/22 08:44:57;;;;;;;2.95;1.23;;;;;;;14.53;81.05;100773.91;5108716;28;20439;-80
2022/10/22 08:47:46;;;;;;;0.40;0.40;;;;;;;14.63;80.99;100783.16;5096377;29;20036;-80
2022/10/22 08:50:23;;;;;;;1.40;1.30;;;;;;;14.57;80.72;100784.28;5109234;28;20036;-80
2022/10/22 08:52:59;;;;;;;0.63;0.63;;;;;;;14.68;80.23;100788.28;5108167;29;20043;-80
2022/10/22 08:55:31;;;;;;;0.20;0.20;;;;;;;14.68;80.28;100785.63;5096449;29;20075;-80
2022/10/22 08:58:38;;;;;;;0.68;0.68;;;;;;;14.67;80.50;100797.97;5097437;29;20028;-82
2022/10/22 09:01:18;;;;;;;1.30;1.20;;;;;;;14.64;80.53;100795.44;5111257;28;20550;-82
2022/10/22 09:04:04;;;;;;;0.35;0.35;;;;;;;14.66;81.07;100806.84;5079143;29;20039;-80
2022/10/22 09:06:39;;;;;;;0.30;0.30;;;;;;;14.76;80.64;100802.00;5109848;29;20067;-81
2022/10/22 09:09:17;;;;;;;1.05;0.93;;;;;;;14.78;80.25;100803.66;5112871;28;20122;-81
2022/10/22 09:11:50;;;;;;;0.20;0.20;;;;;;;14.88;79.41;100812.03;5093445;29;20394;-83
2022/10/22 09:14:24;;;;;;;0.30;0.30;;;;;;;14.92;79.58;100810.97;5094546;28;20496;-83
2022/10/22 09:17:25;;;;;;;0.35;0.35;;;;;;;14.92;79.33;100807.47;5078403;29;20039;-82
2022/10/22 09:20:27;;;;;;;0.50;0.50;;;;;;;14.94;79.07;100822.34;5112498;28;20061;-81
2022/10/22 09:23:19;;;;;;;2.08;0.73;;;;;;;14.99;79.24;100822.16;5117046;28;20167;-80
2022/10/22 09:25:51;;;;;;;0.55;0.55;;;;;;;14.98;79.62;100825.72;5102532;28;20043;-81
2022/10/22 09:28:26;;;;;;;1.00;0.73;;;;;;;15.15;79.05;100827.59;5098799;29;20028;-82
2022/10/22 09:30:59;;;;;;;0.98;0.95;;;;;;;15.15;78.31;100821.47;5082671;29;20040;-82
2022/10/22 09:33:38;;;;;;;2.03;0.90;;;;;;;15.11;79.14;100828.66;5096547;29;20086;-82
2022/10/22 09:36:15;;;;;;;0.98;0.50;;;;;;;15.16;78.54;100828.47;5092637;29;20424;-82
2022/10/22 09:38:52;;;;;;;0.70;0.60;;;;;;;15.20;77.79;100833.56;5081528;29;20576;-83
2022/10/22 09:41:30;;;;;;;1.50;1.33;;;;;;;15.28;77.94;100833.19;5077628;29;20052;-83
2022/10/22 09:44:06;;;;;;;5.60;1.48;;;;;;;15.25;77.15;100830.66;5099057;29;20035;-83
2022/10/22 09:46:42;;;;;;;0.32;0.32;;;;;;;15.21;77.70;100831.75;5095453;29;20075;-82
2022/10/22 09:49:19;;;;;;;0.30;0.30;;;;;;;15.23;77.74;100838.69;5112484;28;20051;-82
2022/10/22 09:51:53;;;;;;;0.45;0.45;;;;;;;15.23;76.89;100846.59;5098307;29;20032;-83
2022/10/22 09:54:35;;;;;;;0.30;0.30;;;;;;;15.26;76.70;100842.97;5095220;28;20047;-83
2022/10/22 09:57:16;;;;;;;0.60;0.60;;;;;;;15.35;77.33;100854.94;5097478;29;20629;-82
2022/10/22 09:59:52;;;;;;;0.60;0.60;;;;;;;15.36;76.31;100852.22;5113352;28;20122;-83
2022/10/22 10:02:27;;;;;;;1.20;0.73;;;;;;;15.35;76.72;100847.84;5091532;29;20115;-83
2022/10/22 10:05:01;;;;;;;0.35;0.35;;;;;;;15.38;77.20;100874.16;5118660;29;20036;-82
2022/10/22 10:07:34;;;;;;;1.75;1.20;;;;;;;15.45;76.57;100864.16;5121352;28;20081;-84
2022/10/22 10:10:33;;;;;;;1.85;0.95;;;;;;;15.48;76.88;100866.66;5084610;29;20035;-82
2022/10/22 10:13:22;;;;;;;0.63;0.63;;;;;;;15.46;75.80;100868.50;5111290;29;20062;-82
2022/10/22 10:16:03;;;;;;;0.30;0.30;;;;;;;15.51;75.83;100869.16;5114032;29;20046;-83
2022/10/22 10:19:00;;;;;;;0.20;0.20;;;;;;;15.54;75.95;100881.38;5104729;29;20032;-83
2022/10/22 10:21:38;;;;;;;0.20;0.20;;;;;;;15.51;75.08;100892.97;5098252;29;20039;-82
2022/10/22 10:24:24;;;;;;;0.20;0.20;;;;;;;15.52;75.50;100885.88;5101756;29;20040;-84
2022/10/22 10:27:11;;;;;;;0.20;0.20;;;;;;;15.51;74.99;100900.03;5118345;28;20051;-80
2022/10/22 10:30:05;;;;;;;0.22;0.22;;;;;;;15.59;74.71;100895.25;5105561;28;20042;-82
2022/10/22 10:32:48;;;;;;;0.20;0.20;;;;;;;15.55;75.17;100893.69;5103441;29;20038;-83
2022/10/22 10:35:24;;;;;;;0.60;0.43;;;;;;;15.58;75.09;100893.53;5123143;28;20035;-83
2022/10/22 10:38:04;;;;;;;0.70;0.70;;;;;;;15.66;75.06;100896.69;5120256;28;20095;-83
2022/10/22 10:40:51;;;;;;;0.20;0.20;;;;;;;15.67;75.03;100898.41;5111814;29;20059;-79
2022/10/22 10:43:45;;;;;;;0.30;0.30;;;;;;;15.59;74.32;100897.91;5119402;28;20083;-83
2022/10/22 10:46:31;;;;;;;;;;;;;;;15.59;75.19;100897.91;5084397;29;20048;-82
2022/10/22 10:49:09;;;;;;;0.22;0.22;;;;;;;15.65;74.84;100902.06;5118609;28;20590;-81
2022/10/22 10:51:53;;;;;;;0.40;0.40;;;;;;;15.67;74.56;100911.63;5119928;28;20035;-80
2022/10/22 10:54:53;;;;;;;;;;;;;;;15.71;74.87;100910.56;5118636;28;20044;-81
2022/10/22 10:57:34;;;;;;;0.60;0.60;;;;;;;15.78;75.30;100907.66;5098954;29;20338;-81
2022/10/22 11:00:19;;;;;;;0.40;0.40;;;;;;;15.66;73.74;100912.56;5116631;29;20044;-79
2022/10/22 11:03:33;;;;;;;0.40;0.40;;;;;;;15.64;73.72;100909.16;5113436;29;20023;-80
2022/10/22 11:06:15;;;;;;;1.95;0.85;;;;;;;15.69;74.31;100907.13;5124277;28;20039;-80
2022/10/22 11:09:07;;;;;;;0.22;0.22;;;;;;;15.65;73.76;100920.56;5108691;29;20035;-80
2022/10/22 11:11:47;;;;;;;0.60;0.60;;;;;;;15.71;73.92;100915.00;5088729;29;20739;-80
2022/10/22 11:14:29;;;;;;;1.98;1.33;;;;;;;15.73;72.70;100918.44;5105190;28;20524;-80
2022/10/22 11:17:14;;;;;;;1.20;0.57;;;;;;;15.67;72.82;100913.44;5105305;29;20035;-80
2022/10/22 11:20:13;;;;;;;0.73;0.73;;;;;;;15.68;72.51;100923.94;5102891;29;20718;-80
2022/10/22 11:22:57;;;;;;;0.60;0.60;;;;;;;15.69;72.90;100922.16;5116455;28;20405;-82
2022/10/22 11:25:38;;;;;;;0.30;0.30;;;;;;;15.77;71.91;100927.97;5097061;29;20570;-81
2022/10/22 11:28:30;;;;;;;0.35;0.35;;;;;;;15.78;72.25;100920.88;5083150;29;20034;-81
2022/10/22 11:31:06;;;;;;;0.20;0.20;;;;;;;15.74;71.13;100926.28;5098808;29;20040;-80
2022/10/22 11:33:42;;;;;;;1.65;0.77;;;;;;;15.72;70.80;100927.28;5082097;29;20040;-82
2022/10/22 11:36:14;;;;;;;0.47;0.47;;;;;;;15.78;71.01;100927.03;5096684;29;20040;-82
2022/10/22 11:38:45;;;;;;;0.30;0.30;;;;;;;15.78;69.92;100926.16;5081626;29;20036;-83
2022/10/22 11:41:20;;;;;;;0.40;0.40;;;;;;;15.80;70.77;100919.03;5096833;29;20106;-81
2022/10/22 11:44:07;;;;;;;0.20;0.20;;;;;;;15.91;71.01;100916.75;5123887;29;20019;-80
2022/10/22 11:46:54;;;;;;;0.50;0.50;;;;;;;15.87;70.41;100917.84;5119725;28;20052;-81
2022/10/22 11:49:40;;;;;;;0.40;0.40;;;;;;;15.96;70.58;100913.91;5108688;28;20055;-79
2022/10/22 11:52:39;;;;;;;0.40;0.40;;;;;;;16.13;69.96;100921.06;5118796;28;20024;-80
2022/10/22 11:55:44;;;;;;;0.38;0.38;;;;;;;16.01;69.66;100918.06;5069023;29;20115;-82
2022/10/22 11:58:27;;;;;;;0.50;0.50;;;;;;;15.99;69.92;100916.41;5083868;29;20044;-82
2022/10/22 12:01:22;;;;;;;0.93;0.53;;;;;;;16.01;69.97;100914.56;5110671;28;20590;-81
2022/10/22 12:04:15;;;;;;;0.20;0.20;;;;;;;16.10;69.97;100905.31;5080142;28;20524;-80
2022/10/22 12:07:29;;;;;;;0.88;0.50;;;;;;;16.10;70.21;100900.91;5082414;29;20051;-81
2022/10/22 12:10:03;;;;;;;0.28;0.28;;;;;;;16.11;69.10;100913.19;5113461;28;20393;-81